Time;durP1;ratioP1;P1;durP2;ratioP2;P2;SDS_P1;SDS_P2;PMS_P1;PMS_P2;Temp;Humidity;BMP_temperature;BMP_pressure;BME280_temperature;BME280_humidity;BME280_pressure;Samples;Min_cycle;Max_cycle;Signal;HPM_P1;HPM_P2
2021/01/24 00:00:14;;;;;;;52.75;26.65;;;;;;;2.93;100.00;98976.80;1803193;77;21056;-50
2021/01/24 00:02:42;;;;;;;55.48;28.27;;;;;;;2.91;100.00;98969.30;1800395;77;20946;-53
2021/01/24 00:10:30;;;;;;;61.30;31.05;;;;;;;2.95;100.00;98964.75;1777454;78;22781;-51
2021/01/24 00:12:58;;;;;;;64.62;32.00;;;;;;;2.89;100.00;98965.82;1762778;79;20973;-49
2021/01/24 00:15:26;;;;;;;61.08;32.10;;;;;;;2.87;100.00;98959.66;1762270;78;21202;-50
2021/01/24 00:17:54;;;;;;;64.05;33.85;;;;;;;2.88;100.00;98951.64;1761608;78;20993;-49
2021/01/24 00:20:22;;;;;;;64.12;33.45;;;;;;;2.92;100.00;98948.39;1762801;78;20946;-48
2021/01/24 00:22:50;;;;;;;62.67;33.48;;;;;;;2.93;100.00;98948.83;1761059;78;21573;-49
2021/01/24 00:25:19;;;;;;;56.35;29.92;;;;;;;2.99;100.00;98947.30;1762547;78;20978;-49
2021/01/24 00:27:47;;;;;;;56.05;30.32;;;;;;;3.02;100.00;98943.19;1762730;78;21395;-50
2021/01/24 00:30:16;;;;;;;55.78;29.85;;;;;;;3.05;100.00;98935.11;1771325;78;21984;-49
2021/01/24 00:32:44;;;;;;;53.28;26.68;;;;;;;3.09;100.00;98937.19;1763966;78;21004;-50
2021/01/24 00:35:12;;;;;;;48.15;24.70;;;;;;;3.12;100.00;98938.43;1764280;78;21580;-50
2021/01/24 00:37:40;;;;;;;43.52;24.85;;;;;;;3.14;100.00;98937.47;1762829;78;21169;-50
2021/01/24 00:40:08;;;;;;;45.90;24.23;;;;;;;3.18;100.00;98929.36;1761768;78;21487;-50
2021/01/24 00:42:37;;;;;;;43.75;24.05;;;;;;;3.15;100.00;98932.55;1766127;78;20965;-49
2021/01/24 00:45:07;;;;;;;45.05;24.70;;;;;;;3.17;100.00;98924.96;1774128;79;20981;-50
2021/01/24 00:47:37;;;;;;;48.08;24.50;;;;;;;3.20;100.00;98924.88;1766562;78;20926;-49
2021/01/24 00:50:06;;;;;;;44.23;24.80;;;;;;;3.21;100.00;98910.63;1762240;78;21089;-49
2021/01/24 00:52:34;;;;;;;44.73;25.48;;;;;;;3.18;100.00;98908.05;1761614;78;22221;-49
2021/01/24 00:55:02;;;;;;;46.53;23.83;;;;;;;3.20;100.00;98912.42;1764884;78;21134;-50
2021/01/24 00:57:30;;;;;;;42.65;24.18;;;;;;;3.20;100.00;98904.42;1765252;78;21573;-50
2021/01/24 00:59:58;;;;;;;44.13;24.50;;;;;;;3.20;100.00;98909.75;1763130;78;20970;-49
2021/01/24 01:02:26;;;;;;;45.70;24.60;;;;;;;3.21;100.00;98907.95;1767764;78;21530;-50
2021/01/24 01:04:55;;;;;;;42.10;22.75;;;;;;;3.21;100.00;98902.63;1763112;78;21366;-48
2021/01/24 01:07:22;;;;;;;43.10;23.52;;;;;;;3.25;100.00;98896.25;1763037;79;21000;-50
2021/01/24 01:09:50;;;;;;;41.80;23.18;;;;;;;3.24;100.00;98889.19;1758268;78;21183;-50
2021/01/24 01:12:18;;;;;;;39.42;21.62;;;;;;;3.24;100.00;98889.19;1759014;79;21020;-50
2021/01/24 01:14:46;;;;;;;35.98;20.75;;;;;;;3.30;100.00;98896.96;1756362;79;21668;-48
2021/01/24 01:17:14;;;;;;;39.75;21.42;;;;;;;3.31;100.00;98888.07;1757793;79;22171;-50
2021/01/24 01:19:42;;;;;;;41.88;23.02;;;;;;;3.34;100.00;98887.95;1756531;79;21569;-53
2021/01/24 01:22:10;;;;;;;37.55;21.65;;;;;;;3.37;100.00;98895.84;1755210;79;21963;-49
2021/01/24 01:24:38;;;;;;;36.10;20.85;;;;;;;3.39;100.00;98884.20;1751795;80;21450;-50
2021/01/24 01:27:06;;;;;;;38.40;20.75;;;;;;;3.44;100.00;98874.70;1759659;79;21116;-48
2021/01/24 01:29:34;;;;;;;39.20;21.15;;;;;;;3.42;100.00;98875.23;1754504;79;21440;-49
2021/01/24 01:32:02;;;;;;;34.85;20.77;;;;;;;3.41;100.00;98876.17;1759007;79;21597;-49
2021/01/24 01:34:30;;;;;;;36.68;19.30;;;;;;;3.41;100.00;98873.50;1753676;79;21107;-49
2021/01/24 01:36:59;;;;;;;33.75;19.42;;;;;;;3.45;100.00;98888.44;1758025;79;21171;-49
2021/01/24 01:39:26;;;;;;;36.73;21.25;;;;;;;3.46;100.00;98884.84;1753390;79;21068;-50
2021/01/24 01:41:54;;;;;;;33.85;19.57;;;;;;;3.48;100.00;98888.34;1753904;79;21365;-50
2021/01/24 01:44:22;;;;;;;35.85;20.23;;;;;;;3.47;100.00;98889.27;1755494;79;21041;-48
2021/01/24 01:46:52;;;;;;;34.20;20.30;;;;;;;3.47;100.00;98881.28;1756686;79;21707;-50
2021/01/24 01:49:20;;;;;;;34.38;18.90;;;;;;;3.48;100.00;98885.67;1745300;79;21133;-50
2021/01/24 01:51:48;;;;;;;36.98;20.27;;;;;;;3.53;100.00;98877.52;1758123;79;20986;-49
2021/01/24 01:54:16;;;;;;;34.23;20.50;;;;;;;3.50;100.00;98877.16;1757869;80;22112;-50
2021/01/24 01:56:44;;;;;;;36.08;20.12;;;;;;;3.49;100.00;98876.75;1753722;79;21087;-49
2021/01/24 01:59:12;;;;;;;34.00;20.23;;;;;;;3.51;100.00;98876.22;1752439;79;21255;-49
2021/01/24 02:02:12;;;;;;;35.23;19.23;;;;;;;3.56;100.00;98872.92;1753629;79;21021;-49
2021/01/24 02:04:55;;;;;;;32.40;18.45;;;;;;;3.60;100.00;98876.36;1754750;79;21101;-48
2021/01/24 02:07:34;;;;;;;32.45;18.85;;;;;;;3.59;100.00;98878.16;1755372;79;21349;-50
2021/01/24 02:10:22;;;;;;;36.93;20.43;;;;;;;3.60;100.00;98871.90;1758193;79;21155;-48
2021/01/24 02:13:04;;;;;;;34.63;22.90;;;;;;;3.64;100.00;98857.54;1754252;79;21125;-49
2021/01/24 02:15:32;;;;;;;39.13;24.45;;;;;;;3.74;100.00;98859.88;1753385;79;21559;-48
2021/01/24 02:18:03;;;;;;;44.00;28.30;;;;;;;3.73;100.00;98855.44;1753751;80;21002;-50
2021/01/24 02:20:53;;;;;;;43.05;27.60;;;;;;;3.70;100.00;98848.44;1757463;79;22882;-49
2021/01/24 02:23:22;;;;;;;43.85;27.13;;;;;;;3.72;100.00;98845.71;1756770;79;21183;-49
2021/01/24 02:26:26;;;;;;;37.65;23.32;;;;;;;3.72;100.00;98839.91;1755330;79;20992;-49
2021/01/24 02:29:13;;;;;;;40.33;23.60;;;;;;;3.84;100.00;98839.95;1818229;76;23263;-48
2021/01/24 02:31:41;;;;;;;36.10;19.75;;;;;;;3.78;100.00;98833.48;1779533;79;21002;-48
2021/01/24 02:34:10;;;;;;;32.35;19.67;;;;;;;3.80;100.00;98831.64;1781680;79;21400;-48
2021/01/24 02:36:37;;;;;;;29.67;18.37;;;;;;;3.81;100.00;98833.38;1781886;79;20997;-49
2021/01/24 02:39:06;;;;;;;32.67;19.37;;;;;;;3.80;100.00;98835.64;1781130;78;21008;-48
2021/01/24 02:41:34;;;;;;;31.93;20.48;;;;;;;3.78;100.00;98829.48;1781420;79;21000;-49
2021/01/24 02:44:03;;;;;;;32.73;19.70;;;;;;;3.79;100.00;98836.58;1782227;78;21526;-49
2021/01/24 02:46:31;;;;;;;34.13;19.90;;;;;;;3.83;100.00;98832.84;1781876;78;21391;-49
2021/01/24 02:48:59;;;;;;;28.27;18.23;;;;;;;3.89;100.00;98839.31;1783263;79;21566;-48
2021/01/24 02:51:27;;;;;;;28.42;16.80;;;;;;;3.93;100.00;98835.57;1783199;78;20954;-49
2021/01/24 02:53:55;;;;;;;32.73;20.17;;;;;;;3.92;100.00;98838.70;1783933;79;21108;-49
2021/01/24 02:56:23;;;;;;;26.02;16.73;;;;;;;3.94;100.00;98830.64;1782675;79;20954;-48
2021/01/24 02:58:52;;;;;;;28.87;17.35;;;;;;;3.96;100.00;98826.60;1750543;79;21381;-51
2021/01/24 03:01:20;;;;;;;28.30;16.80;;;;;;;3.95;100.00;98829.73;1781468;79;21582;-48
2021/01/24 03:03:48;;;;;;;22.77;15.55;;;;;;;3.97;100.00;98834.53;1782884;79;21015;-49
2021/01/24 03:06:16;;;;;;;26.73;17.30;;;;;;;3.99;100.00;98828.66;1783061;79;20986;-48
2021/01/24 03:08:44;;;;;;;28.85;16.65;;;;;;;3.99;100.00;98821.13;1783511;79;21525;-47
2021/01/24 03:11:13;;;;;;;26.90;16.93;;;;;;;4.02;100.00;98823.22;1784115;79;22274;-48
2021/01/24 03:13:56;;;;;;;26.42;16.02;;;;;;;4.08;100.00;98814.11;1782715;79;20974;-49
2021/01/24 03:16:24;;;;;;;23.45;15.00;;;;;;;4.14;100.00;98809.40;1754069;79;21545;-49
2021/01/24 03:18:52;;;;;;;21.60;14.83;;;;;;;4.12;100.00;98808.60;1781993;79;21144;-50
2021/01/24 03:21:20;;;;;;;27.07;18.23;;;;;;;4.12;100.00;98812.60;1783117;78;21118;-49
2021/01/24 03:23:48;;;;;;;23.92;14.47;;;;;;;4.09;100.00;98807.38;1753689;79;22107;-48
2021/01/24 03:26:16;;;;;;;29.23;17.15;;;;;;;4.12;100.00;98803.27;1782734;79;21140;-48
2021/01/24 03:28:45;;;;;;;23.40;15.45;;;;;;;4.13;100.00;98804.13;1782683;79;21714;-49
2021/01/24 03:31:13;;;;;;;24.82;15.43;;;;;;;4.15;100.00;98792.45;1782574;79;21002;-48
2021/01/24 03:33:41;;;;;;;25.75;15.70;;;;;;;4.16;100.00;98794.22;1783926;79;21535;-49
2021/01/24 03:36:09;;;;;;;26.15;15.05;;;;;;;4.17;100.00;98798.62;1783240;78;21357;-49
2021/01/24 03:38:37;;;;;;;28.50;16.02;;;;;;;4.18;100.00;98789.67;1782730;79;21144;-50
2021/01/24 03:41:06;;;;;;;26.40;16.27;;;;;;;4.20;100.00;98781.60;1782419;78;21116;-49
2021/01/24 03:43:34;;;;;;;27.90;17.35;;;;;;;4.22;100.00;98785.56;1782539;79;21613;-49
2021/01/24 03:46:02;;;;;;;25.45;16.15;;;;;;;4.26;100.00;98781.82;1781638;78;21129;-49
2021/01/24 03:48:32;;;;;;;30.70;17.77;;;;;;;4.30;100.00;98776.77;1782154;79;21380;-49
2021/01/24 03:51:00;;;;;;;31.97;18.45;;;;;;;4.28;100.00;98770.64;1782547;79;21507;-50
2021/01/24 03:53:28;;;;;;;34.35;18.62;;;;;;;4.30;100.00;98774.09;1782279;79;21101;-50
2021/01/24 03:55:55;;;;;;;32.30;18.62;;;;;;;4.32;100.00;98770.92;1782499;79;20974;-49
2021/01/24 03:58:23;;;;;;;30.68;18.50;;;;;;;4.34;100.00;98775.72;1783222;79;21148;-49
2021/01/24 04:00:51;;;;;;;31.35;18.67;;;;;;;4.34;100.00;98773.05;1782832;79;21828;-50
2021/01/24 04:03:19;;;;;;;27.32;17.37;;;;;;;4.34;100.00;98771.25;1746279;80;20989;-49
2021/01/24 04:05:47;;;;;;;34.95;20.27;;;;;;;4.37;100.00;98772.94;1747643;80;21596;-49
2021/01/24 04:08:15;;;;;;;28.07;18.15;;;;;;;4.38;100.00;98774.67;1747421;80;21158;-49
2021/01/24 04:10:43;;;;;;;27.30;16.60;;;;;;;4.43;100.00;98772.69;1729759;81;21569;-50
2021/01/24 04:13:11;;;;;;;31.02;17.95;;;;;;;4.42;100.00;98776.26;1782323;79;21423;-49
2021/01/24 04:15:39;;;;;;;26.37;17.25;;;;;;;4.41;100.00;98770.52;1782460;79;20985;-49
2021/01/24 04:18:07;;;;;;;28.87;18.35;;;;;;;4.42;100.00;98770.92;1781604;79;21584;-44
2021/01/24 04:20:35;;;;;;;28.40;17.00;;;;;;;4.44;100.00;98774.41;1782049;79;21037;-45
2021/01/24 04:23:03;;;;;;;25.52;16.55;;;;;;;4.48;100.00;98762.69;1782967;79;21095;-45
2021/01/24 04:25:31;;;;;;;24.02;15.43;;;;;;;4.49;100.00;98772.42;1779891;79;22030;-48
2021/01/24 04:27:59;;;;;;;28.12;18.55;;;;;;;4.50;100.00;98759.95;1781181;79;21622;-44
2021/01/24 04:30:27;;;;;;;28.92;17.75;;;;;;;4.50;100.00;98755.47;1778109;79;21672;-44
2021/01/24 04:32:55;;;;;;;27.37;17.35;;;;;;;4.56;100.00;98759.22;1778264;79;21139;-45
2021/01/24 04:35:23;;;;;;;24.95;15.75;;;;;;;4.59;100.00;98754.23;1777797;79;20939;-44
2021/01/24 04:37:51;;;;;;;29.70;17.15;;;;;;;4.58;100.00;98760.03;1776927;79;22109;-43
2021/01/24 04:40:19;;;;;;;28.42;17.67;;;;;;;4.58;100.00;98750.69;1778062;79;21116;-44
2021/01/24 04:42:47;;;;;;;27.50;17.60;;;;;;;4.61;100.00;98752.34;1778470;79;21014;-45
2021/01/24 04:45:18;;;;;;;28.55;17.52;;;;;;;4.64;100.00;98753.09;1753665;79;20982;-44
2021/01/24 04:47:46;;;;;;;29.27;18.20;;;;;;;4.66;100.00;98741.88;1778712;79;20982;-44
2021/01/24 04:50:16;;;;;;;28.55;18.15;;;;;;;4.61;100.00;98753.22;1776772;79;21436;-45
2021/01/24 04:52:44;;;;;;;28.77;18.75;;;;;;;4.64;100.00;98747.77;1755732;79;21183;-44
2021/01/24 04:55:13;;;;;;;26.60;17.32;;;;;;;4.71;100.00;98743.88;1758863;80;21158;-44
2021/01/24 04:57:41;;;;;;;29.75;17.15;;;;;;;4.77;100.00;98747.23;1760066;80;21012;-46
2021/01/24 05:00:11;;;;;;;26.20;16.77;;;;;;;4.80;100.00;98727.94;1776440;79;20998;-46
2021/01/24 05:02:39;;;;;;;28.07;16.32;;;;;;;4.78;100.00;98733.80;1747009;80;21405;-45
2021/01/24 05:05:09;;;;;;;21.50;14.80;;;;;;;4.81;100.00;98730.14;1776864;79;21001;-43
2021/01/24 05:07:37;;;;;;;25.00;16.25;;;;;;;4.85;100.00;98726.41;1776911;79;21740;-44
2021/01/24 05:10:06;;;;;;;27.37;17.55;;;;;;;4.83;100.00;98720.25;1734382;81;21560;-43
2021/01/24 05:12:34;;;;;;;22.00;14.95;;;;;;;4.85;100.00;98721.94;1759148;80;21676;-44
2021/01/24 05:15:07;;;;;;;23.42;15.65;;;;;;;4.89;100.00;98741.34;1777458;79;21363;-45
2021/01/24 05:17:35;;;;;;;23.77;16.23;;;;;;;4.91;100.00;98732.34;1739788;81;21139;-44
2021/01/24 05:20:05;;;;;;;24.32;17.00;;;;;;;4.95;100.00;98726.38;1729667;80;21649;-46
2021/01/24 05:22:39;;;;;;;23.62;15.25;;;;;;;4.95;100.00;98730.39;1734310;81;21544;-48
2021/01/24 05:25:09;;;;;;;22.98;14.13;;;;;;;4.97;100.00;98728.54;1759297;80;21087;-44
2021/01/24 05:27:37;;;;;;;27.35;16.15;;;;;;;5.02;100.00;98729.20;1754045;78;21383;-45
2021/01/24 05:30:06;;;;;;;23.70;15.78;;;;;;;5.03;100.00;98733.61;1775512;79;21518;-44
2021/01/24 05:32:43;;;;;;;26.42;15.75;;;;;;;5.04;100.00;98729.98;1775196;79;21014;-44
2021/01/24 05:35:12;;;;;;;23.30;15.88;;;;;;;5.09;100.00;98715.96;1773865;79;20981;-44
2021/01/24 05:37:40;;;;;;;24.00;16.45;;;;;;;5.09;100.00;98725.31;1775064;80;20989;-44
2021/01/24 05:40:09;;;;;;;26.93;16.48;;;;;;;5.10;100.00;98719.02;1751012;80;21484;-46
2021/01/24 05:42:38;;;;;;;23.10;15.40;;;;;;;5.13;100.00;98718.91;1775097;80;21148;-57
2021/01/24 05:45:16;;;;;;;24.87;16.60;;;;;;;5.21;100.00;98719.41;1774251;79;20998;-57
2021/01/24 05:47:46;;;;;;;23.90;15.98;;;;;;;5.21;100.00;98715.88;1773500;80;21528;-57
2021/01/24 05:50:16;;;;;;;24.20;15.80;;;;;;;5.17;100.00;98722.31;1774446;79;20982;-57
2021/01/24 05:52:48;;;;;;;25.27;16.17;;;;;;;5.15;100.00;98721.02;1775005;80;21570;-58
2021/01/24 05:55:32;;;;;;;24.63;16.45;;;;;;;5.13;100.00;98726.92;1773938;79;21083;-57
2021/01/24 05:58:20;;;;;;;27.15;16.25;;;;;;;5.12;100.00;98721.66;1774865;80;20990;-56
2021/01/24 06:00:50;;;;;;;26.93;18.05;;;;;;;5.11;100.00;98723.42;1773719;79;21129;-56
2021/01/24 06:03:19;;;;;;;23.10;15.60;;;;;;;5.14;100.00;98709.94;1775023;80;21120;-57
2021/01/24 06:05:47;;;;;;;25.95;16.67;;;;;;;5.16;100.00;98700.04;1774399;79;21157;-60
2021/01/24 06:08:15;;;;;;;23.25;15.45;;;;;;;5.17;100.00;98703.14;1774749;80;21597;-57
2021/01/24 06:10:45;;;;;;;28.85;18.77;;;;;;;5.15;100.00;98702.31;1774795;79;21550;-58
2021/01/24 06:13:20;;;;;;;28.77;18.10;;;;;;;5.17;100.00;98698.27;1771656;79;21617;-57
2021/01/24 06:15:54;;;;;;;24.67;15.80;;;;;;;5.18;100.00;98694.65;1772516;79;20981;-59
2021/01/24 06:18:29;;;;;;;32.55;19.17;;;;;;;5.24;100.00;98685.88;1774541;80;21373;-59
2021/01/24 06:21:00;;;;;;;28.92;18.82;;;;;;;5.23;100.00;98696.17;1774090;79;21594;-58
2021/01/24 06:23:38;;;;;;;30.25;19.27;;;;;;;5.24;100.00;98687.21;1772741;79;21569;-60
2021/01/24 06:26:12;;;;;;;28.73;17.27;;;;;;;5.28;100.00;98691.09;1773427;79;21526;-59
2021/01/24 06:28:43;;;;;;;32.15;19.07;;;;;;;5.32;100.00;98683.31;1774428;78;21123;-57
2021/01/24 06:31:14;;;;;;;30.88;18.00;;;;;;;5.34;100.00;98695.68;1773699;79;21368;-57
2021/01/24 06:33:46;;;;;;;30.90;18.70;;;;;;;5.35;100.00;98692.53;1772697;79;21021;-58
2021/01/24 06:36:15;;;;;;;31.07;18.80;;;;;;;5.35;100.00;98692.53;1772037;80;21184;-58
2021/01/24 06:38:46;;;;;;;34.78;20.70;;;;;;;5.38;100.00;98684.36;1773604;79;21156;-59
2021/01/24 06:41:14;;;;;;;32.45;19.30;;;;;;;5.40;100.00;98686.52;1772275;80;21159;-58
2021/01/24 06:43:50;;;;;;;38.45;22.60;;;;;;;5.40;100.00;98683.84;1773505;80;21360;-58
2021/01/24 06:46:33;;;;;;;35.55;20.12;;;;;;;5.44;100.00;98691.64;1773706;79;21024;-58
2021/01/24 06:49:01;;;;;;;42.53;23.40;;;;;;;5.44;100.00;98686.77;1773743;79;21059;-60
2021/01/24 06:51:40;;;;;;;37.58;22.82;;;;;;;5.45;100.00;98699.20;1773926;79;21215;-59
2021/01/24 06:54:20;;;;;;;41.75;22.67;;;;;;;5.48;100.00;98692.34;1773640;80;21580;-58
2021/01/24 06:56:48;;;;;;;40.30;22.75;;;;;;;5.47;100.00;98689.28;1773582;79;22201;-58
2021/01/24 06:59:29;;;;;;;37.60;20.62;;;;;;;5.50;100.00;98693.16;1772514;79;21152;-60
2021/01/24 07:02:30;;;;;;;44.18;25.43;;;;;;;5.53;100.00;98690.33;1772805;80;21187;-58
2021/01/24 07:05:23;;;;;;;40.20;23.45;;;;;;;5.55;100.00;98688.47;1773919;79;21120;-58
2021/01/24 07:07:53;;;;;;;46.60;26.35;;;;;;;5.61;100.00;98698.88;1723204;80;21530;-57
2021/01/24 07:10:41;;;;;;;48.80;26.82;;;;;;;5.63;100.00;98690.30;1773260;79;21449;-60
2021/01/24 07:13:31;;;;;;;48.55;28.35;;;;;;;5.64;100.00;98684.00;1771482;79;21199;-60
2021/01/24 07:16:07;;;;;;;56.25;30.80;;;;;;;5.66;100.00;98687.49;1772525;79;21119;-61
2021/01/24 07:18:40;;;;;;;56.68;31.73;;;;;;;5.74;100.00;98692.46;1773383;80;21933;-57
2021/01/24 07:21:10;;;;;;;44.80;28.87;;;;;;;5.74;100.00;98686.64;1772852;79;21613;-59
2021/01/24 07:23:40;;;;;;;56.42;33.90;;;;;;;5.76;100.00;98687.93;1773263;80;22190;-61
2021/01/24 07:26:19;;;;;;;59.35;33.90;;;;;;;5.84;100.00;98686.20;1786334;77;22880;-58
2021/01/24 07:28:47;;;;;;;61.25;32.28;;;;;;;5.82;100.00;98689.44;1757868;79;21006;-58
2021/01/24 07:31:15;;;;;;;51.48;30.10;;;;;;;5.85;100.00;98682.58;1725843;80;21431;-60
2021/01/24 07:33:43;;;;;;;55.83;29.63;;;;;;;5.87;100.00;98678.05;1755286;79;21579;-59
2021/01/24 07:36:16;;;;;;;54.23;30.23;;;;;;;5.89;100.00;98673.48;1730926;80;21037;-61
2021/01/24 07:38:46;;;;;;;53.00;29.72;;;;;;;5.90;100.00;98675.20;1756520;79;21538;-58
2021/01/24 07:41:16;;;;;;;53.05;28.95;;;;;;;5.91;100.00;98682.28;1720934;79;21557;-60
2021/01/24 07:43:44;;;;;;;42.33;24.98;;;;;;;5.92;100.00;98678.73;1756909;79;21526;-57
2021/01/24 07:46:12;;;;;;;59.80;28.02;;;;;;;6.02;100.00;98680.02;1731261;80;21577;-58
2021/01/24 07:48:40;;;;;;;60.17;30.57;;;;;;;6.05;100.00;98675.83;1759159;79;20989;-58
2021/01/24 07:51:08;;;;;;;46.18;27.50;;;;;;;6.06;100.00;98674.88;1757062;79;21017;-58
2021/01/24 07:53:37;;;;;;;57.30;31.45;;;;;;;6.09;100.00;98662.70;1760231;79;21033;-58
2021/01/24 07:56:05;;;;;;;53.87;28.17;;;;;;;6.09;100.00;98674.75;1757314;80;21333;-62
2021/01/24 07:58:34;;;;;;;53.10;30.27;;;;;;;6.11;100.00;98658.13;1703436;80;21013;-60
2021/01/24 08:01:03;;;;;;;45.98;27.13;;;;;;;6.14;100.00;98666.02;1757636;79;21194;-61
2021/01/24 08:03:33;;;;;;;45.70;26.97;;;;;;;6.19;100.00;98666.66;1756865;79;21160;-59
2021/01/24 08:06:11;;;;;;;47.03;25.80;;;;;;;6.22;100.00;98663.81;1726775;79;21112;-58
2021/01/24 08:08:42;;;;;;;51.30;27.15;;;;;;;6.30;100.00;98660.29;1760612;79;21282;-50
2021/01/24 08:11:10;;;;;;;54.90;29.75;;;;;;;6.32;100.00;98655.32;1761658;79;21159;-49
2021/01/24 08:13:39;;;;;;;49.88;28.38;;;;;;;6.34;100.00;98664.13;1760814;78;20935;-53
2021/01/24 08:16:15;;;;;;;49.77;29.40;;;;;;;6.35;100.00;98661.88;1754767;80;21132;-51
2021/01/24 08:18:44;;;;;;;50.92;27.82;;;;;;;6.34;100.00;98657.44;1758867;79;21028;-48
2021/01/24 08:21:13;;;;;;;50.92;26.68;;;;;;;6.36;100.00;98667.62;1757765;79;21197;-51
2021/01/24 08:23:42;;;;;;;51.73;27.05;;;;;;;6.35;100.00;98665.89;1755513;79;21194;-52
2021/01/24 08:26:10;;;;;;;52.23;27.82;;;;;;;6.36;100.00;98659.58;1765243;78;21198;-51
2021/01/24 08:28:38;;;;;;;48.92;25.62;;;;;;;6.36;100.00;98654.23;1766671;80;21619;-48
2021/01/24 08:31:06;;;;;;;50.33;25.27;;;;;;;6.37;100.00;98640.76;1767526;78;21019;-61
2021/01/24 08:33:34;;;;;;;44.18;24.67;;;;;;;6.38;100.00;98638.94;1765472;78;21276;-63
2021/01/24 08:36:21;;;;;;;46.65;26.87;;;;;;;6.38;100.00;98631.77;1745805;80;21182;-60
2021/01/24 08:38:49;;;;;;;43.83;25.75;;;;;;;6.41;100.00;98641.47;1768922;78;21632;-61
2021/01/24 08:41:17;;;;;;;44.58;25.82;;;;;;;6.42;100.00;98643.20;1766696;78;21047;-59
2021/01/24 08:43:46;;;;;;;50.03;26.90;;;;;;;6.43;100.00;98642.25;1769401;80;21044;-61
2021/01/24 08:46:20;;;;;;;55.52;26.00;;;;;;;6.46;100.00;98623.36;1767431;79;21543;-48
2021/01/24 08:49:15;;;;;;;47.80;26.65;;;;;;;6.51;100.00;98625.33;1824068;76;22743;-48
2021/01/24 08:51:49;;;;;;;49.15;24.15;;;;;;;6.46;100.00;98623.36;1791394;78;20939;-47
2021/01/24 08:54:28;;;;;;;45.38;25.85;;;;;;;6.47;100.00;98624.61;1791328;78;21366;-47
2021/01/24 08:57:14;;;;;;;46.47;26.50;;;;;;;6.62;100.00;98618.94;1771738;77;28276;-51
2021/01/24 08:59:58;;;;;;;51.88;26.55;;;;;;;6.62;100.00;98635.02;1781092;79;21333;-50
2021/01/24 09:02:34;;;;;;;45.95;25.85;;;;;;;6.62;100.00;98629.66;1781710;79;21364;-52
2021/01/24 09:05:13;;;;;;;51.23;26.93;;;;;;;6.68;100.00;98621.29;1781375;79;20986;-52
2021/01/24 09:07:45;;;;;;;61.75;28.90;;;;;;;6.67;100.00;98632.96;1780716;79;21562;-52
2021/01/24 09:10:20;;;;;;;46.85;29.23;;;;;;;6.66;100.00;98628.55;1744673;80;21546;-51
2021/01/24 09:12:52;;;;;;;54.48;29.12;;;;;;;6.67;100.00;98627.60;1745282;80;21416;-50
2021/01/24 09:15:22;;;;;;;40.67;24.67;;;;;;;6.69;100.00;98633.73;1747731;80;21339;-51
2021/01/24 09:17:52;;;;;;;41.50;24.10;;;;;;;6.71;100.00;98626.50;1715885;82;21212;-59
2021/01/24 09:20:21;;;;;;;47.30;25.20;;;;;;;6.71;100.00;98626.50;1745221;80;21065;-59
2021/01/24 09:22:50;;;;;;;42.55;22.62;;;;;;;6.71;100.00;98625.16;1730428;81;21049;-59
2021/01/24 09:25:19;;;;;;;44.67;24.47;;;;;;;6.73;100.00;98624.59;1731535;81;21565;-59
2021/01/24 09:27:47;;;;;;;47.15;24.80;;;;;;;6.75;100.00;98623.16;1732448;81;21345;-58
2021/01/24 09:30:17;;;;;;;47.05;26.02;;;;;;;6.76;100.00;98618.19;1730086;81;21688;-63
2021/01/24 09:32:46;;;;;;;43.58;24.27;;;;;;;6.77;100.00;98622.16;1731057;81;21351;-61
2021/01/24 09:35:14;;;;;;;44.77;23.83;;;;;;;6.77;100.00;98611.44;1731627;81;21108;-60
2021/01/24 09:37:42;;;;;;;44.00;23.95;;;;;;;6.77;100.00;98614.59;1730362;81;21132;-61
2021/01/24 09:40:10;;;;;;;46.80;23.83;;;;;;;6.80;100.00;98611.73;1732309;81;21673;-60
2021/01/24 09:42:39;;;;;;;39.08;21.93;;;;;;;6.83;100.00;98612.44;1731630;81;21081;-60
2021/01/24 09:45:08;;;;;;;35.75;21.10;;;;;;;6.87;100.00;98601.55;1729705;81;21009;-61
2021/01/24 09:47:37;;;;;;;36.85;20.23;;;;;;;6.92;100.00;98604.84;1731577;81;21539;-61
2021/01/24 09:50:07;;;;;;;38.90;20.15;;;;;;;6.94;100.00;98602.48;1731451;81;21564;-60
2021/01/24 09:52:35;;;;;;;37.83;21.80;;;;;;;6.98;100.00;98607.22;1730638;81;21546;-49
2021/01/24 09:55:04;;;;;;;31.65;19.40;;;;;;;7.02;100.00;98590.86;1729567;81;21598;-47
2021/01/24 09:57:36;;;;;;;36.98;19.42;;;;;;;7.03;100.00;98597.08;1713671;83;21254;-51
2021/01/24 10:00:06;;;;;;;31.95;18.02;;;;;;;7.07;100.00;98593.30;1714959;83;20970;-51
2021/01/24 10:02:36;;;;;;;38.05;18.32;;;;;;;7.13;100.00;98588.07;1713366;83;21123;-49
2021/01/24 10:05:05;;;;;;;33.92;17.32;;;;;;;7.18;100.00;98584.66;1713235;83;21407;-49
2021/01/24 10:07:34;;;;;;;32.30;17.32;;;;;;;7.22;100.00;98579.05;1710114;82;21168;-50
2021/01/24 10:10:03;;;;;;;34.43;16.10;;;;;;;7.25;100.00;98577.55;1711203;82;21574;-61
2021/01/24 10:12:32;;;;;;;32.03;16.45;;;;;;;7.29;100.00;98572.39;1711866;82;21172;-61
2021/01/24 10:14:59;;;;;;;27.55;15.50;;;;;;;7.34;100.00;98571.66;1711865;83;21655;-61
2021/01/24 10:17:29;;;;;;;31.87;16.67;;;;;;;7.39;100.00;98569.20;1711622;82;22067;-48
2021/01/24 10:19:57;;;;;;;24.90;14.70;;;;;;;7.43;100.00;98568.08;1711563;82;21198;-49
2021/01/24 10:22:25;;;;;;;29.75;14.87;;;;;;;7.42;100.00;98575.75;1712318;82;21117;-48
2021/01/24 10:24:53;;;;;;;31.50;15.20;;;;;;;7.44;100.00;98579.19;1711742;82;21055;-50
2021/01/24 10:27:21;;;;;;;38.83;16.67;;;;;;;7.44;100.00;98575.17;1713022;82;20994;-48
2021/01/24 10:29:51;;;;;;;26.62;16.65;;;;;;;7.47;100.00;98569.64;1713749;82;21383;-51
2021/01/24 10:32:20;;;;;;;31.02;17.20;;;;;;;7.49;100.00;98570.41;1712793;83;21545;-47
2021/01/24 10:34:50;;;;;;;30.88;18.00;;;;;;;7.53;100.00;98567.95;1710234;82;21570;-49
2021/01/24 10:37:17;;;;;;;35.88;20.90;;;;;;;7.60;100.00;98557.25;1712397;83;21216;-51
2021/01/24 10:39:46;;;;;;;31.62;17.87;;;;;;;7.67;100.00;98557.75;1711929;82;21104;-53
2021/01/24 10:42:15;;;;;;;28.65;17.48;;;;;;;7.70;100.00;98566.50;1712453;83;21142;-49
2021/01/24 10:44:43;;;;;;;25.27;15.68;;;;;;;7.75;100.00;98563.08;1713597;83;21002;-48
2021/01/24 10:47:11;;;;;;;27.70;15.68;;;;;;;7.78;100.00;98561.57;1712933;83;21624;-49
2021/01/24 10:49:40;;;;;;;32.40;17.55;;;;;;;7.76;100.00;98554.06;1699549;83;21197;-52
2021/01/24 10:52:10;;;;;;;31.77;17.23;;;;;;;7.77;100.00;98555.79;1747897;80;21586;-49
2021/01/24 10:54:38;;;;;;;31.17;14.60;;;;;;;7.84;100.00;98558.53;1749122;80;22248;-53
2021/01/24 10:57:06;;;;;;;26.87;14.63;;;;;;;7.86;100.00;98550.38;1747230;80;21892;-50
2021/01/24 10:59:34;;;;;;;33.90;15.32;;;;;;;7.88;100.00;98552.03;1747530;80;21061;-48
2021/01/24 11:02:02;;;;;;;29.98;14.63;;;;;;;7.90;100.00;98548.39;1748142;80;20957;-50
2021/01/24 11:04:32;;;;;;;25.27;13.22;;;;;;;7.93;100.00;98549.05;1746094;80;21187;-50
2021/01/24 11:07:04;;;;;;;25.85;14.70;;;;;;;7.93;100.00;98541.48;1749067;80;21490;-49
2021/01/24 11:09:31;;;;;;;;;;;;;;;7.92;100.00;98544.64;1750290;80;21071;-47
2021/01/24 11:12:02;;;;;;;20.90;12.33;;;;;;;7.92;100.00;98527.67;1747849;80;20274;-48
2021/01/24 11:14:30;;;;;;;23.62;12.73;;;;;;;7.94;100.00;98542.75;1747461;80;21876;-47
2021/01/24 11:16:58;;;;;;;25.23;14.05;;;;;;;7.95;100.00;98531.53;1747071;80;21040;-52
2021/01/24 11:19:26;;;;;;;32.23;16.50;;;;;;;7.97;100.00;98539.00;1746996;80;22268;-51
2021/01/24 11:21:54;;;;;;;26.15;15.18;;;;;;;8.02;100.00;98538.26;1748203;80;21494;-51
2021/01/24 11:24:22;;;;;;;32.60;19.17;;;;;;;8.09;99.73;98532.90;1747207;80;21012;-51
2021/01/24 11:26:51;;;;;;;25.62;15.93;;;;;;;8.09;99.22;98530.21;1747021;80;21176;-50
2021/01/24 11:29:19;;;;;;;37.58;19.75;;;;;;;8.13;99.01;98526.40;1747979;80;21620;-50
2021/01/24 11:31:47;;;;;;;30.08;17.30;;;;;;;8.16;98.63;98528.91;1747890;79;21130;-52
2021/01/24 11:34:15;;;;;;;28.30;17.02;;;;;;;8.19;98.44;98527.84;1746856;80;21632;-51
2021/01/24 11:36:44;;;;;;;29.27;16.65;;;;;;;8.19;98.06;98526.02;1747092;80;21135;-49